sensor_id;sensor_type;location;lat;lon;timestamp;P1;P2;P0
14880;PMS7003;7533;51.278;12.588;2023-02-07T00:00:00;10.75;8.75;5.25
14880;PMS7003;7533;51.278;12.588;2023-02-07T00:05:14;8.50;6.25;4.00
14880;PMS7003;7533;51.278;12.588;2023-02-07T00:10:17;10.00;8.25;6.00
14880;PMS7003;7533;51.278;12.588;2023-02-07T00:15:20;8.75;7.25;5.00
14880;PMS7003;7533;51.278;12.588;2023-02-07T00:20:24;8.75;8.00;5.75
14880;PMS7003;7533;51.278;12.588;2023-02-07T00:25:27;8.00;8.00;5.00
14880;PMS7003;7533;51.278;12.588;2023-02-07T00:30:30;7.00;6.00;3.00
14880;PMS7003;7533;51.278;12.588;2023-02-07T00:35:34;7.00;6.50;4.00
14880;PMS7003;7533;51.278;12.588;2023-02-07T00:40:38;6.75;6.75;5.00
14880;PMS7003;7533;51.278;12.588;2023-02-07T00:45:41;7.75;7.75;4.00
14880;PMS7003;7533;51.278;12.588;2023-02-07T00:50:45;7.25;6.00;4.50
14880;PMS7003;7533;51.278;12.588;2023-02-07T00:55:49;9.50;8.25;5.00
14880;PMS7003;7533;51.278;12.588;2023-02-07T01:00:52;7.75;7.75;4.75
14880;PMS7003;7533;51.278;12.588;2023-02-07T01:05:56;6.00;5.00;4.00
14880;PMS7003;7533;51.278;12.588;2023-02-07T01:11:00;7.75;7.75;4.00
14880;PMS7003;7533;51.278;12.588;2023-02-07T01:16:04;8.00;7.75;4.00
14880;PMS7003;7533;51.278;12.588;2023-02-07T01:21:13;7.00;7.00;4.25
14880;PMS7003;7533;51.278;12.588;2023-02-07T01:26:17;5.50;5.50;4.50
14880;PMS7003;7533;51.278;12.588;2023-02-07T01:31:20;7.50;7.00;4.25
14880;PMS7003;7533;51.278;12.588;2023-02-07T01:36:26;6.25;6.00;3.75
14880;PMS7003;7533;51.278;12.588;2023-02-07T01:41:30;7.75;6.00;4.00
14880;PMS7003;7533;51.278;12.588;2023-02-07T01:46:34;6.50;5.75;3.25
14880;PMS7003;7533;51.278;12.588;2023-02-07T01:51:38;9.50;7.25;4.00
14880;PMS7003;7533;51.278;12.588;2023-02-07T01:56:47;6.00;6.00;4.25
14880;PMS7003;7533;51.278;12.588;2023-02-07T02:01:55;4.25;4.25;3.00
14880;PMS7003;7533;51.278;12.588;2023-02-07T02:07:00;6.00;5.00;3.75
14880;PMS7003;7533;51.278;12.588;2023-02-07T02:12:15;5.50;4.50;3.00
14880;PMS7003;7533;51.278;12.588;2023-02-07T02:17:52;6.00;6.00;4.00
14880;PMS7003;7533;51.278;12.588;2023-02-07T02:23:10;5.50;5.50;3.00
14880;PMS7003;7533;51.278;12.588;2023-02-07T02:28:23;7.50;6.75;4.00
14880;PMS7003;7533;51.278;12.588;2023-02-07T02:33:48;5.75;5.75;4.00
14880;PMS7003;7533;51.278;12.588;2023-02-07T02:38:59;8.50;6.75;4.00
14880;PMS7003;7533;51.278;12.588;2023-02-07T02:44:10;7.50;7.00;3.75
14880;PMS7003;7533;51.278;12.588;2023-02-07T02:49:19;7.50;6.00;3.75
14880;PMS7003;7533;51.278;12.588;2023-02-07T02:54:28;5.00;5.00;3.00
14880;PMS7003;7533;51.278;12.588;2023-02-07T02:59:40;6.25;5.25;3.25
14880;PMS7003;7533;51.278;12.588;2023-02-07T03:04:58;4.25;4.25;3.00
14880;PMS7003;7533;51.278;12.588;2023-02-07T03:10:17;7.75;5.75;3.25
14880;PMS7003;7533;51.278;12.588;2023-02-07T03:15:31;6.50;6.50;4.00
14880;PMS7003;7533;51.278;12.588;2023-02-07T03:20:42;5.50;5.50;4.00
14880;PMS7003;7533;51.278;12.588;2023-02-07T03:25:50;8.25;6.00;4.00
14880;PMS7003;7533;51.278;12.588;2023-02-07T03:30:54;7.75;7.50;4.00
14880;PMS7003;7533;51.278;12.588;2023-02-07T03:36:06;6.50;5.50;3.50
14880;PMS7003;7533;51.278;12.588;2023-02-07T03:41:16;4.00;4.00;2.50
14880;PMS7003;7533;51.278;12.588;2023-02-07T03:46:25;7.75;6.00;3.00
14880;PMS7003;7533;51.278;12.588;2023-02-07T03:51:37;5.50;5.50;4.00
14880;PMS7003;7533;51.278;12.588;2023-02-07T03:56:40;5.75;4.25;3.00
14880;PMS7003;7533;51.278;12.588;2023-02-07T04:01:43;5.50;5.50;3.00
14880;PMS7003;7533;51.278;12.588;2023-02-07T04:06:47;7.50;7.50;3.25
14880;PMS7003;7533;51.278;12.588;2023-02-07T04:11:50;8.50;6.75;4.00
14880;PMS7003;7533;51.278;12.588;2023-02-07T04:16:53;5.50;4.50;3.00
14880;PMS7003;7533;51.278;12.588;2023-02-07T04:21:57;5.50;4.75;3.75
14880;PMS7003;7533;51.278;12.588;2023-02-07T04:27:00;5.75;5.50;4.00
14880;PMS7003;7533;51.278;12.588;2023-02-07T04:32:03;5.00;5.00;3.00
14880;PMS7003;7533;51.278;12.588;2023-02-07T04:37:08;7.50;5.00;3.25
14880;PMS7003;7533;51.278;12.588;2023-02-07T04:42:10;6.75;6.50;4.25
14880;PMS7003;7533;51.278;12.588;2023-02-07T04:47:13;6.00;6.00;3.75
14880;PMS7003;7533;51.278;12.588;2023-02-07T04:52:18;6.75;6.00;3.50
14880;PMS7003;7533;51.278;12.588;2023-02-07T04:57:20;4.50;4.50;3.50
14880;PMS7003;7533;51.278;12.588;2023-02-07T05:02:23;8.25;6.75;4.25
14880;PMS7003;7533;51.278;12.588;2023-02-07T05:07:27;6.50;6.00;3.50
14880;PMS7003;7533;51.278;12.588;2023-02-07T05:12:30;6.75;6.75;4.50
14880;PMS7003;7533;51.278;12.588;2023-02-07T05:17:33;5.50;5.50;4.00
14880;PMS7003;7533;51.278;12.588;2023-02-07T05:22:40;5.50;5.50;4.00
14880;PMS7003;7533;51.278;12.588;2023-02-07T05:27:43;7.25;6.75;3.25
14880;PMS7003;7533;51.278;12.588;2023-02-07T05:32:46;9.50;8.75;4.25
14880;PMS7003;7533;51.278;12.588;2023-02-07T05:38:08;6.00;6.00;3.75
14880;PMS7003;7533;51.278;12.588;2023-02-07T05:43:13;8.00;7.00;4.00
14880;PMS7003;7533;51.278;12.588;2023-02-07T05:48:16;8.00;7.25;4.00
14880;PMS7003;7533;51.278;12.588;2023-02-07T05:53:20;8.75;7.00;5.00
14880;PMS7003;7533;51.278;12.588;2023-02-07T05:58:23;7.25;7.25;4.00
14880;PMS7003;7533;51.278;12.588;2023-02-07T06:03:26;8.50;6.00;4.00
14880;PMS7003;7533;51.278;12.588;2023-02-07T06:08:30;5.00;5.00;3.25
14880;PMS7003;7533;51.278;12.588;2023-02-07T06:13:33;6.25;4.75;3.50
14880;PMS7003;7533;51.278;12.588;2023-02-07T06:18:36;8.00;7.75;5.00
14880;PMS7003;7533;51.278;12.588;2023-02-07T06:23:40;5.50;5.50;3.50
14880;PMS7003;7533;51.278;12.588;2023-02-07T06:28:43;6.00;6.00;3.50
14880;PMS7003;7533;51.278;12.588;2023-02-07T06:33:46;8.25;6.75;4.75
14880;PMS7003;7533;51.278;12.588;2023-02-07T06:38:50;7.00;7.00;4.50
14880;PMS7003;7533;51.278;12.588;2023-02-07T06:43:55;8.25;7.00;4.00
14880;PMS7003;7533;51.278;12.588;2023-02-07T06:48:58;6.00;4.50;3.25
14880;PMS7003;7533;51.278;12.588;2023-02-07T06:54:02;5.50;5.50;4.00
14880;PMS7003;7533;51.278;12.588;2023-02-07T06:59:09;5.50;5.00;3.25
14880;PMS7003;7533;51.278;12.588;2023-02-07T07:04:12;6.75;6.75;4.00
14880;PMS7003;7533;51.278;12.588;2023-02-07T07:09:17;6.00;5.00;3.50
14880;PMS7003;7533;51.278;12.588;2023-02-07T07:14:20;7.50;6.75;4.00
14880;PMS7003;7533;51.278;12.588;2023-02-07T07:19:23;7.25;7.00;5.00
14880;PMS7003;7533;51.278;12.588;2023-02-07T07:24:27;7.50;6.25;4.00
14880;PMS7003;7533;51.278;12.588;2023-02-07T07:29:30;7.75;7.50;5.00
14880;PMS7003;7533;51.278;12.588;2023-02-07T07:34:33;6.25;5.50;4.00
14880;PMS7003;7533;51.278;12.588;2023-02-07T07:39:37;5.50;5.50;3.00
14880;PMS7003;7533;51.278;12.588;2023-02-07T07:44:40;6.50;5.50;4.00
14880;PMS7003;7533;51.278;12.588;2023-02-07T07:49:43;9.75;5.25;4.00
14880;PMS7003;7533;51.278;12.588;2023-02-07T07:54:47;5.00;5.00;4.00
14880;PMS7003;7533;51.278;12.588;2023-02-07T07:59:50;5.25;5.25;4.00
14880;PMS7003;7533;51.278;12.588;2023-02-07T08:04:52;53.00;40.40;23.40
14880;PMS7003;7533;51.278;12.588;2023-02-07T08:09:57;44.20;38.00;23.00
14880;PMS7003;7533;51.278;12.588;2023-02-07T08:15:00;35.80;32.40;19.80
14880;PMS7003;7533;51.278;12.588;2023-02-07T08:20:04;36.00;32.60;18.00
14880;PMS7003;7533;51.278;12.588;2023-02-07T08:25:09;30.50;27.25;15.00
14880;PMS7003;7533;51.278;12.588;2023-02-07T08:30:12;25.25;22.75;15.00
14880;PMS7003;7533;51.278;12.588;2023-02-07T08:35:16;27.50;22.25;14.00
14880;PMS7003;7533;51.278;12.588;2023-02-07T08:40:20;24.75;20.50;13.25
14880;PMS7003;7533;51.278;12.588;2023-02-07T08:45:23;23.25;20.50;13.75
14880;PMS7003;7533;51.278;12.588;2023-02-07T08:50:26;22.00;17.25;11.25
14880;PMS7003;7533;51.278;12.588;2023-02-07T08:55:30;17.50;17.50;10.50
14880;PMS7003;7533;51.278;12.588;2023-02-07T09:00:33;19.00;17.00;10.00
14880;PMS7003;7533;51.278;12.588;2023-02-07T09:05:36;21.75;18.00;12.50
14880;PMS7003;7533;51.278;12.588;2023-02-07T09:10:41;20.50;19.75;11.75
14880;PMS7003;7533;51.278;12.588;2023-02-07T09:15:51;22.50;18.00;12.00
14880;PMS7003;7533;51.278;12.588;2023-02-07T09:20:55;19.50;17.75;11.25
14880;PMS7003;7533;51.278;12.588;2023-02-07T09:26:00;20.25;19.00;12.00
14880;PMS7003;7533;51.278;12.588;2023-02-07T09:31:08;16.75;15.75;11.00
14880;PMS7003;7533;51.278;12.588;2023-02-07T09:36:16;16.25;14.00;9.50
14880;PMS7003;7533;51.278;12.588;2023-02-07T09:41:25;15.00;14.25;10.00
14880;PMS7003;7533;51.278;12.588;2023-02-07T09:46:33;13.50;13.50;9.00
14880;PMS7003;7533;51.278;12.588;2023-02-07T09:51:38;17.00;15.75;9.00
14880;PMS7003;7533;51.278;12.588;2023-02-07T09:56:43;16.00;13.75;9.00
14880;PMS7003;7533;51.278;12.588;2023-02-07T10:01:48;15.50;14.75;9.25
14880;PMS7003;7533;51.278;12.588;2023-02-07T10:06:55;13.00;12.00;8.00
14880;PMS7003;7533;51.278;12.588;2023-02-07T10:12:03;12.75;12.75;8.50
14880;PMS7003;7533;51.278;12.588;2023-02-07T10:17:22;14.50;14.00;9.00
14880;PMS7003;7533;51.278;12.588;2023-02-07T10:22:34;18.50;14.00;9.75
14880;PMS7003;7533;51.278;12.588;2023-02-07T10:27:49;13.50;13.00;8.75
14880;PMS7003;7533;51.278;12.588;2023-02-07T10:33:09;12.25;11.75;8.00
14880;PMS7003;7533;51.278;12.588;2023-02-07T10:38:19;17.00;14.75;8.50
14880;PMS7003;7533;51.278;12.588;2023-02-07T10:43:27;11.25;11.25;8.50
14880;PMS7003;7533;51.278;12.588;2023-02-07T10:48:33;13.00;11.25;8.00
14880;PMS7003;7533;51.278;12.588;2023-02-07T10:53:43;12.50;10.75;8.00
14880;PMS7003;7533;51.278;12.588;2023-02-07T10:58:57;15.00;13.00;7.50
14880;PMS7003;7533;51.278;12.588;2023-02-07T11:04:01;10.25;10.25;8.00
14880;PMS7003;7533;51.278;12.588;2023-02-07T11:09:23;12.00;12.00;8.50
14880;PMS7003;7533;51.278;12.588;2023-02-07T11:14:28;14.50;12.50;8.25
14880;PMS7003;7533;51.278;12.588;2023-02-07T11:19:31;11.75;11.75;8.25
14880;PMS7003;7533;51.278;12.588;2023-02-07T11:24:34;11.00;10.00;7.00
14880;PMS7003;7533;51.278;12.588;2023-02-07T11:29:43;15.25;11.75;8.00
14880;PMS7003;7533;51.278;12.588;2023-02-07T11:34:50;12.00;10.50;7.00
14880;PMS7003;7533;51.278;12.588;2023-02-07T11:39:56;10.25;10.00;7.00
14880;PMS7003;7533;51.278;12.588;2023-02-07T11:45:23;13.00;12.50;8.50
14880;PMS7003;7533;51.278;12.588;2023-02-07T11:50:26;10.00;10.00;6.75
14880;PMS7003;7533;51.278;12.588;2023-02-07T11:55:32;10.75;10.00;6.25
14880;PMS7003;7533;51.278;12.588;2023-02-07T12:00:39;12.25;12.25;7.00
14880;PMS7003;7533;51.278;12.588;2023-02-07T12:05:43;10.50;10.50;8.25
14880;PMS7003;7533;51.278;12.588;2023-02-07T12:10:53;12.50;11.00;7.00
14880;PMS7003;7533;51.278;12.588;2023-02-07T12:16:01;12.00;11.00;7.50
14880;PMS7003;7533;51.278;12.588;2023-02-07T12:21:09;13.00;12.25;7.00
14880;PMS7003;7533;51.278;12.588;2023-02-07T12:26:21;13.75;13.00;8.50
14880;PMS7003;7533;51.278;12.588;2023-02-07T12:31:28;14.00;10.75;7.25
14880;PMS7003;7533;51.278;12.588;2023-02-07T12:36:40;15.75;10.25;6.75
14880;PMS7003;7533;51.278;12.588;2023-02-07T12:41:48;12.00;11.25;7.00
14880;PMS7003;7533;51.278;12.588;2023-02-07T12:46:59;15.00;11.00;6.75
14880;PMS7003;7533;51.278;12.588;2023-02-07T12:52:13;10.00;9.00;6.75
14880;PMS7003;7533;51.278;12.588;2023-02-07T12:57:29;14.00;11.75;7.00
14880;PMS7003;7533;51.278;12.588;2023-02-07T13:02:43;11.00;9.75;6.00
14880;PMS7003;7533;51.278;12.588;2023-02-07T13:07:58;10.50;9.50;5.25
14880;PMS7003;7533;51.278;12.588;2023-02-07T13:13:12;11.25;10.50;7.00
14880;PMS7003;7533;51.278;12.588;2023-02-07T13:18:27;11.75;10.25;6.00
14880;PMS7003;7533;51.278;12.588;2023-02-07T13:23:36;10.50;8.50;6.50
14880;PMS7003;7533;51.278;12.588;2023-02-07T13:28:44;12.00;11.25;7.00
14880;PMS7003;7533;51.278;12.588;2023-02-07T13:33:52;9.25;9.25;6.50
14880;PMS7003;7533;51.278;12.588;2023-02-07T13:38:58;52.20;41.00;24.20
14880;PMS7003;7533;51.278;12.588;2023-02-07T13:44:11;59.60;46.60;28.00
14880;PMS7003;7533;51.278;12.588;2023-02-07T13:49:28;57.20;44.20;27.20
14880;PMS7003;7533;51.278;12.588;2023-02-07T13:54:43;56.40;44.20;26.20
14880;PMS7003;7533;51.278;12.588;2023-02-07T14:00:04;45.00;36.80;24.00
14880;PMS7003;7533;51.278;12.588;2023-02-07T14:05:21;47.40;39.40;23.00
14880;PMS7003;7533;51.278;12.588;2023-02-07T14:10:33;50.60;39.60;26.00
14880;PMS7003;7533;51.278;12.588;2023-02-07T14:27:02;45.80;38.20;24.00
14880;PMS7003;7533;51.278;12.588;2023-02-07T14:37:40;41.80;34.00;22.00
14880;PMS7003;7533;51.278;12.588;2023-02-07T14:42:56;47.20;36.60;24.00
14880;PMS7003;7533;51.278;12.588;2023-02-07T14:48:03;36.80;31.80;21.80
14880;PMS7003;7533;51.278;12.588;2023-02-07T14:53:12;39.60;31.20;20.20
14880;PMS7003;7533;51.278;12.588;2023-02-07T14:58:17;39.00;32.60;21.00
14880;PMS7003;7533;51.278;12.588;2023-02-07T15:03:29;35.60;32.00;21.00
14880;PMS7003;7533;51.278;12.588;2023-02-07T15:08:36;37.80;31.40;21.00
14880;PMS7003;7533;51.278;12.588;2023-02-07T15:13:40;35.20;31.00;19.80
14880;PMS7003;7533;51.278;12.588;2023-02-07T15:18:46;32.00;29.00;21.00
14880;PMS7003;7533;51.278;12.588;2023-02-07T15:23:56;33.80;29.40;20.20
14880;PMS7003;7533;51.278;12.588;2023-02-07T15:29:02;33.40;27.20;18.40
14880;PMS7003;7533;51.278;12.588;2023-02-07T15:34:11;34.80;30.00;19.40
14880;PMS7003;7533;51.278;12.588;2023-02-07T15:39:20;37.40;30.80;19.20
14880;PMS7003;7533;51.278;12.588;2023-02-07T15:44:24;36.20;29.40;18.40
14880;PMS7003;7533;51.278;12.588;2023-02-07T15:49:29;32.40;27.80;19.00
14880;PMS7003;7533;51.278;12.588;2023-02-07T15:54:38;34.20;28.40;18.80
14880;PMS7003;7533;51.278;12.588;2023-02-07T15:59:47;33.80;28.00;19.60
14880;PMS7003;7533;51.278;12.588;2023-02-07T16:04:52;36.20;28.00;19.20
14880;PMS7003;7533;51.278;12.588;2023-02-07T16:09:56;30.80;27.60;19.00
14880;PMS7003;7533;51.278;12.588;2023-02-07T16:15:23;32.20;28.60;19.00
14880;PMS7003;7533;51.278;12.588;2023-02-07T16:20:29;32.00;29.00;19.00
14880;PMS7003;7533;51.278;12.588;2023-02-07T16:25:36;29.60;26.80;18.00
14880;PMS7003;7533;51.278;12.588;2023-02-07T16:30:39;29.40;28.60;18.00
14880;PMS7003;7533;51.278;12.588;2023-02-07T16:35:42;52.60;42.00;26.80
14880;PMS7003;7533;51.278;12.588;2023-02-07T16:40:47;70.00;59.00;37.60
14880;PMS7003;7533;51.278;12.588;2023-02-07T16:45:50;72.60;60.80;39.00
14880;PMS7003;7533;51.278;12.588;2023-02-07T16:50:54;101.40;91.40;57.40
14880;PMS7003;7533;51.278;12.588;2023-02-07T16:55:59;108.40;94.00;58.20
14880;PMS7003;7533;51.278;12.588;2023-02-07T17:01:04;105.40;98.20;59.80
14880;PMS7003;7533;51.278;12.588;2023-02-07T17:06:08;102.60;92.00;56.60
14880;PMS7003;7533;51.278;12.588;2023-02-07T17:11:16;104.20;89.80;54.40
14880;PMS7003;7533;51.278;12.588;2023-02-07T17:16:21;87.40;82.40;49.40
14880;PMS7003;7533;51.278;12.588;2023-02-07T17:21:25;81.00;71.40;48.60
14880;PMS7003;7533;51.278;12.588;2023-02-07T17:26:29;88.40;77.00;48.20
14880;PMS7003;7533;51.278;12.588;2023-02-07T17:31:33;80.80;71.60;43.20
14880;PMS7003;7533;51.278;12.588;2023-02-07T17:36:36;75.20;66.60;42.20
14880;PMS7003;7533;51.278;12.588;2023-02-07T17:41:41;74.80;66.20;41.80
14880;PMS7003;7533;51.278;12.588;2023-02-07T17:46:44;72.00;61.60;40.20
14880;PMS7003;7533;51.278;12.588;2023-02-07T17:51:47;72.40;60.20;37.00
14880;PMS7003;7533;51.278;12.588;2023-02-07T17:56:51;71.00;56.40;35.80
14880;PMS7003;7533;51.278;12.588;2023-02-07T18:01:56;70.20;56.80;36.80
14880;PMS7003;7533;51.278;12.588;2023-02-07T18:06:58;68.00;53.60;33.20
14880;PMS7003;7533;51.278;12.588;2023-02-07T18:12:03;70.00;56.80;35.00
14880;PMS7003;7533;51.278;12.588;2023-02-07T18:17:06;65.60;51.40;33.00
14880;PMS7003;7533;51.278;12.588;2023-02-07T18:22:09;66.40;53.20;32.80
14880;PMS7003;7533;51.278;12.588;2023-02-07T18:27:13;67.40;53.20;33.80
14880;PMS7003;7533;51.278;12.588;2023-02-07T18:32:17;65.80;51.40;33.00
14880;PMS7003;7533;51.278;12.588;2023-02-07T18:37:20;68.40;50.40;31.80
14880;PMS7003;7533;51.278;12.588;2023-02-07T18:42:24;62.80;48.00;31.00
14880;PMS7003;7533;51.278;12.588;2023-02-07T18:47:27;61.20;47.80;29.80
14880;PMS7003;7533;51.278;12.588;2023-02-07T18:52:32;63.20;48.40;31.20
14880;PMS7003;7533;51.278;12.588;2023-02-07T18:57:36;61.80;47.80;29.80
14880;PMS7003;7533;51.278;12.588;2023-02-07T19:02:39;58.60;45.80;28.60
14880;PMS7003;7533;51.278;12.588;2023-02-07T19:07:42;60.00;45.00;29.40
14880;PMS7003;7533;51.278;12.588;2023-02-07T19:12:46;57.80;45.40;29.00
14880;PMS7003;7533;51.278;12.588;2023-02-07T19:17:49;57.40;44.20;29.80
14880;PMS7003;7533;51.278;12.588;2023-02-07T19:22:52;56.80;44.60;29.80
14880;PMS7003;7533;51.278;12.588;2023-02-07T19:27:56;56.40;43.00;27.60
14880;PMS7003;7533;51.278;12.588;2023-02-07T19:32:59;54.20;43.20;27.60
14880;PMS7003;7533;51.278;12.588;2023-02-07T19:38:02;54.80;44.20;27.60
14880;PMS7003;7533;51.278;12.588;2023-02-07T19:43:06;54.00;43.40;28.60
14880;PMS7003;7533;51.278;12.588;2023-02-07T19:48:09;54.20;43.00;27.00
14880;PMS7003;7533;51.278;12.588;2023-02-07T19:53:12;56.40;42.80;26.00
14880;PMS7003;7533;51.278;12.588;2023-02-07T19:58:17;51.20;41.00;27.00
14880;PMS7003;7533;51.278;12.588;2023-02-07T20:03:20;55.00;43.40;26.80
14880;PMS7003;7533;51.278;12.588;2023-02-07T20:08:23;49.00;39.60;26.00
14880;PMS7003;7533;51.278;12.588;2023-02-07T20:13:27;50.20;40.80;26.80
14880;PMS7003;7533;51.278;12.588;2023-02-07T20:18:33;52.60;40.20;26.60
14880;PMS7003;7533;51.278;12.588;2023-02-07T20:23:36;49.80;40.00;25.40
14880;PMS7003;7533;51.278;12.588;2023-02-07T20:28:43;48.80;38.80;25.20
14880;PMS7003;7533;51.278;12.588;2023-02-07T20:33:47;47.80;37.20;25.00
14880;PMS7003;7533;51.278;12.588;2023-02-07T20:38:50;46.00;37.20;25.60
14880;PMS7003;7533;51.278;12.588;2023-02-07T20:43:55;50.20;40.00;25.40
14880;PMS7003;7533;51.278;12.588;2023-02-07T20:49:00;52.40;41.40;25.80
14880;PMS7003;7533;51.278;12.588;2023-02-07T20:54:05;47.20;36.60;24.80
14880;PMS7003;7533;51.278;12.588;2023-02-07T20:59:11;45.80;37.60;24.80
14880;PMS7003;7533;51.278;12.588;2023-02-07T21:04:17;46.40;36.80;24.60
14880;PMS7003;7533;51.278;12.588;2023-02-07T21:09:20;48.40;39.40;24.60
14880;PMS7003;7533;51.278;12.588;2023-02-07T21:14:25;44.20;34.40;23.40
14880;PMS7003;7533;51.278;12.588;2023-02-07T21:19:29;41.00;34.20;22.60
14880;PMS7003;7533;51.278;12.588;2023-02-07T21:24:32;41.00;34.40;24.20
14880;PMS7003;7533;51.278;12.588;2023-02-07T21:29:37;47.20;37.80;24.20
14880;PMS7003;7533;51.278;12.588;2023-02-07T21:34:40;44.00;34.60;23.00
14880;PMS7003;7533;51.278;12.588;2023-02-07T21:39:43;42.80;35.00;23.80
14880;PMS7003;7533;51.278;12.588;2023-02-07T21:44:47;43.40;35.20;21.80
14880;PMS7003;7533;51.278;12.588;2023-02-07T21:49:50;46.60;36.20;23.60
14880;PMS7003;7533;51.278;12.588;2023-02-07T21:54:52;43.60;33.80;22.80
14880;PMS7003;7533;51.278;12.588;2023-02-07T21:59:57;41.40;35.20;22.00
14880;PMS7003;7533;51.278;12.588;2023-02-07T22:04:59;39.20;33.60;21.00
14880;PMS7003;7533;51.278;12.588;2023-02-07T22:10:02;34.80;31.40;21.40
14880;PMS7003;7533;51.278;12.588;2023-02-07T22:15:07;40.20;32.20;21.20
14880;PMS7003;7533;51.278;12.588;2023-02-07T22:20:10;42.80;33.60;21.00
14880;PMS7003;7533;51.278;12.588;2023-02-07T22:25:13;41.00;34.00;23.00
14880;PMS7003;7533;51.278;12.588;2023-02-07T22:30:17;39.60;33.80;21.00
14880;PMS7003;7533;51.278;12.588;2023-02-07T22:35:20;38.20;32.20;20.40
14880;PMS7003;7533;51.278;12.588;2023-02-07T22:40:23;38.80;31.20;20.20
14880;PMS7003;7533;51.278;12.588;2023-02-07T22:45:27;42.20;32.60;21.80
14880;PMS7003;7533;51.278;12.588;2023-02-07T22:50:31;38.20;31.60;20.80
14880;PMS7003;7533;51.278;12.588;2023-02-07T22:55:34;37.40;31.40;20.40
14880;PMS7003;7533;51.278;12.588;2023-02-07T23:00:38;40.40;32.00;19.40
14880;PMS7003;7533;51.278;12.588;2023-02-07T23:05:42;36.60;30.80;20.80
14880;PMS7003;7533;51.278;12.588;2023-02-07T23:10:44;36.60;30.00;19.00
14880;PMS7003;7533;51.278;12.588;2023-02-07T23:15:49;37.80;31.20;20.20
14880;PMS7003;7533;51.278;12.588;2023-02-07T23:20:51;39.00;31.40;19.00
14880;PMS7003;7533;51.278;12.588;2023-02-07T23:25:55;37.40;31.20;21.00
14880;PMS7003;7533;51.278;12.588;2023-02-07T23:31:00;38.60;30.40;19.80
14880;PMS7003;7533;51.278;12.588;2023-02-07T23:36:03;33.00;30.00;19.80
14880;PMS7003;7533;51.278;12.588;2023-02-07T23:41:07;32.00;29.20;19.00
14880;PMS7003;7533;51.278;12.588;2023-02-07T23:46:12;29.20;26.60;18.60
14880;PMS7003;7533;51.278;12.588;2023-02-07T23:51:16;35.40;30.20;19.80
14880;PMS7003;7533;51.278;12.588;2023-02-07T23:56:19;34.00;29.60;19.20
